sensor_id;sensor_type;location;lat;lon;timestamp;temperature;humidity
64874;HTU21D;51367;45.204;38.576;2022-12-05T00:02:02;-2.00;78.20
64874;HTU21D;51367;45.204;38.576;2022-12-05T00:04:28;-2.01;78.21
64874;HTU21D;51367;45.204;38.576;2022-12-05T00:06:54;-2.02;78.24
64874;HTU21D;51367;45.204;38.576;2022-12-05T00:09:20;-2.02;78.27
64874;HTU21D;51367;45.204;38.576;2022-12-05T00:11:46;-2.03;78.30
64874;HTU21D;51367;45.204;38.576;2022-12-05T00:14:13;-2.04;78.34
64874;HTU21D;51367;45.204;38.576;2022-12-05T00:16:40;-2.05;78.39
64874;HTU21D;51367;45.204;38.576;2022-12-05T00:19:08;-2.04;78.41
64874;HTU21D;51367;45.204;38.576;2022-12-05T00:21:36;-2.06;78.43
64874;HTU21D;51367;45.204;38.576;2022-12-05T00:24:03;-2.05;78.43
64874;HTU21D;51367;45.204;38.576;2022-12-05T00:26:31;-2.05;78.42
64874;HTU21D;51367;45.204;38.576;2022-12-05T00:28:57;-2.05;78.46
64874;HTU21D;51367;45.204;38.576;2022-12-05T00:31:25;-2.05;78.46
64874;HTU21D;51367;45.204;38.576;2022-12-05T00:33:52;-2.05;78.47
64874;HTU21D;51367;45.204;38.576;2022-12-05T00:36:21;-2.06;78.48
64874;HTU21D;51367;45.204;38.576;2022-12-05T00:38:48;-2.04;78.51
64874;HTU21D;51367;45.204;38.576;2022-12-05T00:41:18;-2.04;78.54
64874;HTU21D;51367;45.204;38.576;2022-12-05T00:43:45;-2.05;78.47
64874;HTU21D;51367;45.204;38.576;2022-12-05T00:46:14;-2.04;78.50
64874;HTU21D;51367;45.204;38.576;2022-12-05T00:48:41;-2.05;78.47
64874;HTU21D;51367;45.204;38.576;2022-12-05T00:51:20;-2.05;78.44
64874;HTU21D;51367;45.204;38.576;2022-12-05T00:53:47;-2.05;78.43
64874;HTU21D;51367;45.204;38.576;2022-12-05T00:56:17;-2.06;78.42
64874;HTU21D;51367;45.204;38.576;2022-12-05T00:58:44;-2.06;78.47
64874;HTU21D;51367;45.204;38.576;2022-12-05T01:01:12;-2.04;78.50
64874;HTU21D;51367;45.204;38.576;2022-12-05T01:03:39;-2.05;78.53
64874;HTU21D;51367;45.204;38.576;2022-12-05T01:06:05;-2.05;78.52
64874;HTU21D;51367;45.204;38.576;2022-12-05T01:08:33;-2.04;78.53
64874;HTU21D;51367;45.204;38.576;2022-12-05T01:11:00;-2.05;78.53
64874;HTU21D;51367;45.204;38.576;2022-12-05T01:13:27;-2.05;78.56
64874;HTU21D;51367;45.204;38.576;2022-12-05T01:15:53;-2.06;78.51
64874;HTU21D;51367;45.204;38.576;2022-12-05T01:18:20;-2.06;78.48
64874;HTU21D;51367;45.204;38.576;2022-12-05T01:20:47;-2.08;78.50
64874;HTU21D;51367;45.204;38.576;2022-12-05T01:23:14;-2.08;78.50
64874;HTU21D;51367;45.204;38.576;2022-12-05T01:25:46;-2.08;78.54
64874;HTU21D;51367;45.204;38.576;2022-12-05T01:28:13;-2.08;78.55
64874;HTU21D;51367;45.204;38.576;2022-12-05T01:30:41;-2.10;78.53
64874;HTU21D;51367;45.204;38.576;2022-12-05T01:33:08;-2.10;78.60
64874;HTU21D;51367;45.204;38.576;2022-12-05T01:35:36;-2.10;78.66
64874;HTU21D;51367;45.204;38.576;2022-12-05T01:38:02;-2.13;78.69
64874;HTU21D;51367;45.204;38.576;2022-12-05T01:40:29;-2.12;78.77
64874;HTU21D;51367;45.204;38.576;2022-12-05T01:42:55;-2.13;78.75
64874;HTU21D;51367;45.204;38.576;2022-12-05T01:47:58;-2.13;78.79
64874;HTU21D;51367;45.204;38.576;2022-12-05T01:50:25;-2.13;78.83
64874;HTU21D;51367;45.204;38.576;2022-12-05T01:52:51;-2.14;78.82
64874;HTU21D;51367;45.204;38.576;2022-12-05T01:55:18;-2.15;78.84
64874;HTU21D;51367;45.204;38.576;2022-12-05T01:57:45;-2.16;78.88
64874;HTU21D;51367;45.204;38.576;2022-12-05T02:00:15;-2.17;78.89
64874;HTU21D;51367;45.204;38.576;2022-12-05T02:02:47;-2.18;78.93
64874;HTU21D;51367;45.204;38.576;2022-12-05T02:05:18;-2.19;78.98
64874;HTU21D;51367;45.204;38.576;2022-12-05T02:07:46;-2.19;78.96
64874;HTU21D;51367;45.204;38.576;2022-12-05T02:10:12;-2.20;79.03
64874;HTU21D;51367;45.204;38.576;2022-12-05T02:12:39;-2.22;79.10
64874;HTU21D;51367;45.204;38.576;2022-12-05T02:15:13;-2.22;79.14
64874;HTU21D;51367;45.204;38.576;2022-12-05T02:32:19;-2.32;79.36
64874;HTU21D;51367;45.204;38.576;2022-12-05T02:35:06;-2.32;79.38
64874;HTU21D;51367;45.204;38.576;2022-12-05T02:37:54;-2.32;79.49
64874;HTU21D;51367;45.204;38.576;2022-12-05T02:43:15;-2.31;79.60
64874;HTU21D;51367;45.204;38.576;2022-12-05T02:45:44;-2.32;79.62
64874;HTU21D;51367;45.204;38.576;2022-12-05T02:48:14;-2.31;79.69
64874;HTU21D;51367;45.204;38.576;2022-12-05T02:50:41;-2.31;79.70
64874;HTU21D;51367;45.204;38.576;2022-12-05T02:53:10;-2.30;79.74
64874;HTU21D;51367;45.204;38.576;2022-12-05T02:55:39;-2.30;79.81
64874;HTU21D;51367;45.204;38.576;2022-12-05T02:58:10;-2.29;79.82
64874;HTU21D;51367;45.204;38.576;2022-12-05T03:00:39;-2.29;79.81
64874;HTU21D;51367;45.204;38.576;2022-12-05T03:03:16;-2.28;79.83
64874;HTU21D;51367;45.204;38.576;2022-12-05T03:05:48;-2.28;79.84
64874;HTU21D;51367;45.204;38.576;2022-12-05T03:08:21;-2.29;79.84
64874;HTU21D;51367;45.204;38.576;2022-12-05T03:10:48;-2.29;79.86
64874;HTU21D;51367;45.204;38.576;2022-12-05T03:13:53;-2.31;79.88
64874;HTU21D;51367;45.204;38.576;2022-12-05T03:16:32;-2.32;79.91
64874;HTU21D;51367;45.204;38.576;2022-12-05T03:19:05;-2.34;79.88
64874;HTU21D;51367;45.204;38.576;2022-12-05T03:21:39;-2.37;79.90
64874;HTU21D;51367;45.204;38.576;2022-12-05T03:24:12;-2.41;79.93
64874;HTU21D;51367;45.204;38.576;2022-12-05T03:30:05;-2.48;80.01
64874;HTU21D;51367;45.204;38.576;2022-12-05T03:38:00;-2.52;80.17
64874;HTU21D;51367;45.204;38.576;2022-12-05T03:40:44;-2.53;80.21
64874;HTU21D;51367;45.204;38.576;2022-12-05T03:46:10;-2.56;80.25
64874;HTU21D;51367;45.204;38.576;2022-12-05T03:51:12;-2.58;80.36
64874;HTU21D;51367;45.204;38.576;2022-12-05T03:53:45;-2.58;80.40
64874;HTU21D;51367;45.204;38.576;2022-12-05T03:56:25;-2.59;80.48
64874;HTU21D;51367;45.204;38.576;2022-12-05T03:59:24;-2.60;80.46
64874;HTU21D;51367;45.204;38.576;2022-12-05T04:01:53;-2.62;80.46
64874;HTU21D;51367;45.204;38.576;2022-12-05T04:04:29;-2.64;80.46
64874;HTU21D;51367;45.204;38.576;2022-12-05T04:07:03;-2.65;80.49
64874;HTU21D;51367;45.204;38.576;2022-12-05T04:09:40;-2.68;80.56
64874;HTU21D;51367;45.204;38.576;2022-12-05T04:12:13;-2.69;80.58
64874;HTU21D;51367;45.204;38.576;2022-12-05T04:14:44;-2.69;80.72
64874;HTU21D;51367;45.204;38.576;2022-12-05T04:23:10;-2.74;80.94
64874;HTU21D;51367;45.204;38.576;2022-12-05T04:25:45;-2.72;80.94
64874;HTU21D;51367;45.204;38.576;2022-12-05T04:28:31;-2.73;81.03
64874;HTU21D;51367;45.204;38.576;2022-12-05T04:31:17;-2.71;81.01
64874;HTU21D;51367;45.204;38.576;2022-12-05T04:34:06;-2.69;81.03
64874;HTU21D;51367;45.204;38.576;2022-12-05T04:36:41;-2.68;81.08
64874;HTU21D;51367;45.204;38.576;2022-12-05T04:39:15;-2.65;81.18
64874;HTU21D;51367;45.204;38.576;2022-12-05T04:44:15;-2.61;81.22
64874;HTU21D;51367;45.204;38.576;2022-12-05T04:46:43;-2.60;81.22
64874;HTU21D;51367;45.204;38.576;2022-12-05T04:49:14;-2.57;81.14
64874;HTU21D;51367;45.204;38.576;2022-12-05T04:51:42;-2.54;81.23
64874;HTU21D;51367;45.204;38.576;2022-12-05T04:54:17;-2.49;81.26
64874;HTU21D;51367;45.204;38.576;2022-12-05T04:56:45;-2.46;81.28
64874;HTU21D;51367;45.204;38.576;2022-12-05T04:59:13;-2.42;81.25
64874;HTU21D;51367;45.204;38.576;2022-12-05T05:01:52;-2.37;81.26
64874;HTU21D;51367;45.204;38.576;2022-12-05T05:04:28;-2.33;81.27
64874;HTU21D;51367;45.204;38.576;2022-12-05T05:06:55;-2.30;81.32
64874;HTU21D;51367;45.204;38.576;2022-12-05T05:09:21;-2.27;81.30
64874;HTU21D;51367;45.204;38.576;2022-12-05T05:11:47;-2.22;81.25
64874;HTU21D;51367;45.204;38.576;2022-12-05T05:14:13;-2.19;81.23
64874;HTU21D;51367;45.204;38.576;2022-12-05T05:16:41;-2.15;81.21
64874;HTU21D;51367;45.204;38.576;2022-12-05T05:19:08;-2.14;81.14
64874;HTU21D;51367;45.204;38.576;2022-12-05T05:21:37;-2.12;81.11
64874;HTU21D;51367;45.204;38.576;2022-12-05T05:24:05;-2.09;81.07
64874;HTU21D;51367;45.204;38.576;2022-12-05T05:26:37;-2.07;81.03
64874;HTU21D;51367;45.204;38.576;2022-12-05T05:29:03;-2.05;80.98
64874;HTU21D;51367;45.204;38.576;2022-12-05T05:31:30;-2.05;80.91
64874;HTU21D;51367;45.204;38.576;2022-12-05T05:33:56;-2.03;80.87
64874;HTU21D;51367;45.204;38.576;2022-12-05T05:36:25;-2.03;80.88
64874;HTU21D;51367;45.204;38.576;2022-12-05T05:38:54;-2.01;80.86
64874;HTU21D;51367;45.204;38.576;2022-12-05T05:41:26;-1.97;80.86
64874;HTU21D;51367;45.204;38.576;2022-12-05T05:43:53;-1.92;80.88
64874;HTU21D;51367;45.204;38.576;2022-12-05T05:46:21;-1.85;80.92
64874;HTU21D;51367;45.204;38.576;2022-12-05T05:48:48;-1.78;80.89
64874;HTU21D;51367;45.204;38.576;2022-12-05T05:51:15;-1.72;80.83
64874;HTU21D;51367;45.204;38.576;2022-12-05T05:53:42;-1.64;80.91
64874;HTU21D;51367;45.204;38.576;2022-12-05T05:56:11;-1.53;81.07
64874;HTU21D;51367;45.204;38.576;2022-12-05T05:58:37;-1.26;81.56
64874;HTU21D;51367;45.204;38.576;2022-12-05T06:01:12;-0.95;81.71
64874;HTU21D;51367;45.204;38.576;2022-12-05T06:03:39;-0.62;81.29
64874;HTU21D;51367;45.204;38.576;2022-12-05T06:06:07;-0.35;80.99
64874;HTU21D;51367;45.204;38.576;2022-12-05T06:08:37;-0.08;80.59
64874;HTU21D;51367;45.204;38.576;2022-12-05T06:11:07;0.15;79.45
64874;HTU21D;51367;45.204;38.576;2022-12-05T06:13:33;0.21;78.77
64874;HTU21D;51367;45.204;38.576;2022-12-05T06:15:59;0.19;78.79
64874;HTU21D;51367;45.204;38.576;2022-12-05T06:18:25;0.06;77.83
64874;HTU21D;51367;45.204;38.576;2022-12-05T06:20:52;-0.08;77.72
64874;HTU21D;51367;45.204;38.576;2022-12-05T06:23:19;-0.20;77.82
64874;HTU21D;51367;45.204;38.576;2022-12-05T06:25:50;-0.28;77.72
64874;HTU21D;51367;45.204;38.576;2022-12-05T06:28:18;-0.36;77.70
64874;HTU21D;51367;45.204;38.576;2022-12-05T06:30:45;-0.30;78.04
64874;HTU21D;51367;45.204;38.576;2022-12-05T06:33:11;-0.22;77.76
64874;HTU21D;51367;45.204;38.576;2022-12-05T06:35:38;-0.06;77.46
64874;HTU21D;51367;45.204;38.576;2022-12-05T06:38:05;0.05;77.35
64874;HTU21D;51367;45.204;38.576;2022-12-05T06:40:32;0.17;77.40
64874;HTU21D;51367;45.204;38.576;2022-12-05T06:42:59;0.32;77.56
64874;HTU21D;51367;45.204;38.576;2022-12-05T06:45:25;0.42;76.78
64874;HTU21D;51367;45.204;38.576;2022-12-05T06:47:51;0.46;76.63
64874;HTU21D;51367;45.204;38.576;2022-12-05T06:50:18;0.45;76.28
64874;HTU21D;51367;45.204;38.576;2022-12-05T06:52:44;0.39;75.88
64874;HTU21D;51367;45.204;38.576;2022-12-05T06:55:10;0.38;75.95
64874;HTU21D;51367;45.204;38.576;2022-12-05T06:57:36;0.40;75.85
64874;HTU21D;51367;45.204;38.576;2022-12-05T07:00:04;0.45;75.70
64874;HTU21D;51367;45.204;38.576;2022-12-05T07:02:52;0.49;75.38
64874;HTU21D;51367;45.204;38.576;2022-12-05T07:05:18;0.49;75.15
64874;HTU21D;51367;45.204;38.576;2022-12-05T07:07:45;0.46;74.86
64874;HTU21D;51367;45.204;38.576;2022-12-05T07:10:11;0.40;74.70
64874;HTU21D;51367;45.204;38.576;2022-12-05T07:12:37;0.33;74.55
64874;HTU21D;51367;45.204;38.576;2022-12-05T07:15:04;0.29;74.99
64874;HTU21D;51367;45.204;38.576;2022-12-05T07:17:35;0.27;74.96
64874;HTU21D;51367;45.204;38.576;2022-12-05T07:20:02;0.23;74.83
64874;HTU21D;51367;45.204;38.576;2022-12-05T07:22:29;0.23;74.95
64874;HTU21D;51367;45.204;38.576;2022-12-05T07:24:55;0.25;75.07
64874;HTU21D;51367;45.204;38.576;2022-12-05T07:27:21;0.29;75.12
64874;HTU21D;51367;45.204;38.576;2022-12-05T07:29:48;0.32;74.83
64874;HTU21D;51367;45.204;38.576;2022-12-05T07:32:14;0.34;74.70
64874;HTU21D;51367;45.204;38.576;2022-12-05T07:34:40;0.39;74.94
64874;HTU21D;51367;45.204;38.576;2022-12-05T07:37:06;0.44;75.06
64874;HTU21D;51367;45.204;38.576;2022-12-05T07:39:32;0.46;74.53
64874;HTU21D;51367;45.204;38.576;2022-12-05T07:41:58;0.45;74.19
64874;HTU21D;51367;45.204;38.576;2022-12-05T07:44:24;0.44;74.47
64874;HTU21D;51367;45.204;38.576;2022-12-05T07:46:51;0.46;74.60
64874;HTU21D;51367;45.204;38.576;2022-12-05T07:49:18;0.47;74.53
64874;HTU21D;51367;45.204;38.576;2022-12-05T07:51:44;0.49;74.25
64874;HTU21D;51367;45.204;38.576;2022-12-05T07:54:10;0.49;74.07
64874;HTU21D;51367;45.204;38.576;2022-12-05T07:56:36;0.49;74.25
64874;HTU21D;51367;45.204;38.576;2022-12-05T07:59:02;0.50;74.02
64874;HTU21D;51367;45.204;38.576;2022-12-05T08:01:28;0.52;74.14
64874;HTU21D;51367;45.204;38.576;2022-12-05T08:03:57;0.58;74.10
64874;HTU21D;51367;45.204;38.576;2022-12-05T08:06:26;0.58;73.77
64874;HTU21D;51367;45.204;38.576;2022-12-05T08:08:53;0.59;73.73
64874;HTU21D;51367;45.204;38.576;2022-12-05T08:11:31;0.60;73.82
64874;HTU21D;51367;45.204;38.576;2022-12-05T08:14:01;0.60;73.52
64874;HTU21D;51367;45.204;38.576;2022-12-05T08:16:29;0.60;73.13
64874;HTU21D;51367;45.204;38.576;2022-12-05T08:18:57;0.58;73.22
64874;HTU21D;51367;45.204;38.576;2022-12-05T08:21:24;0.60;73.60
64874;HTU21D;51367;45.204;38.576;2022-12-05T08:23:51;0.61;73.67
64874;HTU21D;51367;45.204;38.576;2022-12-05T08:26:22;0.63;73.44
64874;HTU21D;51367;45.204;38.576;2022-12-05T08:29:10;0.64;73.62
64874;HTU21D;51367;45.204;38.576;2022-12-05T08:31:45;0.64;73.40
64874;HTU21D;51367;45.204;38.576;2022-12-05T08:34:16;0.64;73.57
64874;HTU21D;51367;45.204;38.576;2022-12-05T08:36:43;0.66;73.32
64874;HTU21D;51367;45.204;38.576;2022-12-05T08:39:15;0.65;72.77
64874;HTU21D;51367;45.204;38.576;2022-12-05T08:41:42;0.61;72.89
64874;HTU21D;51367;45.204;38.576;2022-12-05T08:44:10;0.60;73.09
64874;HTU21D;51367;45.204;38.576;2022-12-05T08:46:42;0.60;73.15
64874;HTU21D;51367;45.204;38.576;2022-12-05T08:49:09;0.63;73.30
64874;HTU21D;51367;45.204;38.576;2022-12-05T08:51:36;0.67;73.49
64874;HTU21D;51367;45.204;38.576;2022-12-05T08:54:03;0.71;73.09
64874;HTU21D;51367;45.204;38.576;2022-12-05T08:56:29;0.72;73.27
64874;HTU21D;51367;45.204;38.576;2022-12-05T08:58:55;0.77;73.20
64874;HTU21D;51367;45.204;38.576;2022-12-05T09:01:21;0.80;73.07
64874;HTU21D;51367;45.204;38.576;2022-12-05T09:03:48;0.84;73.10
64874;HTU21D;51367;45.204;38.576;2022-12-05T09:06:15;0.90;72.78
64874;HTU21D;51367;45.204;38.576;2022-12-05T09:08:42;0.92;73.02
64874;HTU21D;51367;45.204;38.576;2022-12-05T09:11:17;0.97;72.95
64874;HTU21D;51367;45.204;38.576;2022-12-05T09:13:44;1.01;72.84
64874;HTU21D;51367;45.204;38.576;2022-12-05T09:16:21;1.06;72.76
64874;HTU21D;51367;45.204;38.576;2022-12-05T09:18:48;1.07;72.05
64874;HTU21D;51367;45.204;38.576;2022-12-05T09:21:20;1.06;72.22
64874;HTU21D;51367;45.204;38.576;2022-12-05T09:23:47;1.06;72.23
64874;HTU21D;51367;45.204;38.576;2022-12-05T09:26:16;1.07;72.17
64874;HTU21D;51367;45.204;38.576;2022-12-05T09:28:43;1.08;72.49
64874;HTU21D;51367;45.204;38.576;2022-12-05T09:31:21;1.12;72.48
64874;HTU21D;51367;45.204;38.576;2022-12-05T09:33:49;1.16;72.43
64874;HTU21D;51367;45.204;38.576;2022-12-05T09:36:17;1.19;72.63
64874;HTU21D;51367;45.204;38.576;2022-12-05T09:38:44;1.23;72.56
64874;HTU21D;51367;45.204;38.576;2022-12-05T09:45:25;1.40;71.92
64874;HTU21D;51367;45.204;38.576;2022-12-05T09:50:39;1.69;71.98
64874;HTU21D;51367;45.204;38.576;2022-12-05T09:53:24;1.73;71.60
64874;HTU21D;51367;45.204;38.576;2022-12-05T09:58:46;1.96;71.31
64874;HTU21D;51367;45.204;38.576;2022-12-05T10:01:38;2.11;71.51
64874;HTU21D;51367;45.204;38.576;2022-12-05T10:13:07;2.43;68.82
64874;HTU21D;51367;45.204;38.576;2022-12-05T10:15:43;2.41;69.25
64874;HTU21D;51367;45.204;38.576;2022-12-05T10:21:22;2.50;69.87
64874;HTU21D;51367;45.204;38.576;2022-12-05T10:24:03;2.56;69.13
64874;HTU21D;51367;45.204;38.576;2022-12-05T10:26:36;2.52;68.87
64874;HTU21D;51367;45.204;38.576;2022-12-05T10:29:26;2.51;69.40
64874;HTU21D;51367;45.204;38.576;2022-12-05T10:32:01;2.57;69.36
64874;HTU21D;51367;45.204;38.576;2022-12-05T10:34:41;2.64;68.65
64874;HTU21D;51367;45.204;38.576;2022-12-05T10:37:16;2.65;68.60
64874;HTU21D;51367;45.204;38.576;2022-12-05T10:39:44;2.64;68.28
64874;HTU21D;51367;45.204;38.576;2022-12-05T10:42:14;2.65;68.77
64874;HTU21D;51367;45.204;38.576;2022-12-05T10:44:41;2.71;69.20
64874;HTU21D;51367;45.204;38.576;2022-12-05T10:47:07;2.84;69.26
64874;HTU21D;51367;45.204;38.576;2022-12-05T10:49:34;2.97;68.68
64874;HTU21D;51367;45.204;38.576;2022-12-05T10:52:03;3.02;68.75
64874;HTU21D;51367;45.204;38.576;2022-12-05T10:54:31;3.04;68.42
64874;HTU21D;51367;45.204;38.576;2022-12-05T10:57:25;3.09;68.65
64874;HTU21D;51367;45.204;38.576;2022-12-05T10:59:52;3.17;68.33
64874;HTU21D;51367;45.204;38.576;2022-12-05T11:02:25;3.25;67.20
64874;HTU21D;51367;45.204;38.576;2022-12-05T11:04:53;3.26;67.62
64874;HTU21D;51367;45.204;38.576;2022-12-05T11:07:35;3.28;67.80
64874;HTU21D;51367;45.204;38.576;2022-12-05T11:12:43;3.34;67.49
64874;HTU21D;51367;45.204;38.576;2022-12-05T11:17:47;3.41;67.21
64874;HTU21D;51367;45.204;38.576;2022-12-05T11:22:47;3.42;67.20
64874;HTU21D;51367;45.204;38.576;2022-12-05T11:25:32;3.39;66.96
64874;HTU21D;51367;45.204;38.576;2022-12-05T11:30:57;3.38;67.07
64874;HTU21D;51367;45.204;38.576;2022-12-05T11:33:24;3.35;67.03
64874;HTU21D;51367;45.204;38.576;2022-12-05T11:35:54;3.33;67.47
64874;HTU21D;51367;45.204;38.576;2022-12-05T11:38:26;3.33;67.13
64874;HTU21D;51367;45.204;38.576;2022-12-05T11:43:34;3.34;66.98
64874;HTU21D;51367;45.204;38.576;2022-12-05T11:51:50;3.35;66.85
64874;HTU21D;51367;45.204;38.576;2022-12-05T12:11:25;3.25;66.38
64874;HTU21D;51367;45.204;38.576;2022-12-05T12:17:02;3.17;66.27
64874;HTU21D;51367;45.204;38.576;2022-12-05T12:33:34;3.05;67.30
64874;HTU21D;51367;45.204;38.576;2022-12-05T12:55:21;2.84;67.10
64874;HTU21D;51367;45.204;38.576;2022-12-05T12:58:05;2.82;67.20
64874;HTU21D;51367;45.204;38.576;2022-12-05T13:03:43;2.76;67.31
64874;HTU21D;51367;45.204;38.576;2022-12-05T13:06:21;2.71;67.33
64874;HTU21D;51367;45.204;38.576;2022-12-05T13:09:14;2.66;67.45
64874;HTU21D;51367;45.204;38.576;2022-12-05T13:11:42;2.61;67.56
64874;HTU21D;51367;45.204;38.576;2022-12-05T13:14:12;2.56;67.64
64874;HTU21D;51367;45.204;38.576;2022-12-05T13:16:42;2.54;67.88
64874;HTU21D;51367;45.204;38.576;2022-12-05T13:19:42;2.44;68.03
64874;HTU21D;51367;45.204;38.576;2022-12-05T13:22:10;2.37;68.06
64874;HTU21D;51367;45.204;38.576;2022-12-05T13:24:37;2.28;67.97
64874;HTU21D;51367;45.204;38.576;2022-12-05T13:27:06;2.20;68.00
64874;HTU21D;51367;45.204;38.576;2022-12-05T13:29:40;2.13;68.10
64874;HTU21D;51367;45.204;38.576;2022-12-05T13:32:23;2.06;68.33
64874;HTU21D;51367;45.204;38.576;2022-12-05T13:34:50;1.99;68.37
64874;HTU21D;51367;45.204;38.576;2022-12-05T13:37:25;1.93;68.48
64874;HTU21D;51367;45.204;38.576;2022-12-05T13:40:31;1.85;68.63
64874;HTU21D;51367;45.204;38.576;2022-12-05T13:43:19;1.79;68.66
64874;HTU21D;51367;45.204;38.576;2022-12-05T13:48:25;1.67;68.87
64874;HTU21D;51367;45.204;38.576;2022-12-05T13:58:51;1.46;69.33
64874;HTU21D;51367;45.204;38.576;2022-12-05T14:03:58;1.32;69.53
64874;HTU21D;51367;45.204;38.576;2022-12-05T14:09:01;1.22;69.78
64874;HTU21D;51367;45.204;38.576;2022-12-05T14:11:28;1.19;69.88
64874;HTU21D;51367;45.204;38.576;2022-12-05T14:13:54;1.13;69.96
64874;HTU21D;51367;45.204;38.576;2022-12-05T14:19:01;1.04;70.16
64874;HTU21D;51367;45.204;38.576;2022-12-05T14:27:19;0.89;70.58
64874;HTU21D;51367;45.204;38.576;2022-12-05T14:30:51;0.87;70.67
64874;HTU21D;51367;45.204;38.576;2022-12-05T14:33:16;0.86;70.73
64874;HTU21D;51367;45.204;38.576;2022-12-05T14:35:47;0.83;70.75
64874;HTU21D;51367;45.204;38.576;2022-12-05T14:38:27;0.80;70.81
64874;HTU21D;51367;45.204;38.576;2022-12-05T14:40:55;0.77;70.87
64874;HTU21D;51367;45.204;38.576;2022-12-05T14:43:30;0.74;70.97
64874;HTU21D;51367;45.204;38.576;2022-12-05T14:46:03;0.72;71.05
64874;HTU21D;51367;45.204;38.576;2022-12-05T14:48:39;0.67;71.10
64874;HTU21D;51367;45.204;38.576;2022-12-05T14:54:14;0.58;71.27
64874;HTU21D;51367;45.204;38.576;2022-12-05T14:56:43;0.52;71.35
64874;HTU21D;51367;45.204;38.576;2022-12-05T15:01:44;0.45;71.54
64874;HTU21D;51367;45.204;38.576;2022-12-05T15:07:02;0.32;71.73
64874;HTU21D;51367;45.204;38.576;2022-12-05T15:12:24;0.12;71.97
64874;HTU21D;51367;45.204;38.576;2022-12-05T15:15:01;0.02;72.13
64874;HTU21D;51367;45.204;38.576;2022-12-05T15:17:36;-0.06;72.27
64874;HTU21D;51367;45.204;38.576;2022-12-05T15:20:07;-0.13;72.44
64874;HTU21D;51367;45.204;38.576;2022-12-05T15:22:36;-0.19;72.55
64874;HTU21D;51367;45.204;38.576;2022-12-05T15:25:23;-0.25;72.67
64874;HTU21D;51367;45.204;38.576;2022-12-05T15:28:00;-0.30;72.83
64874;HTU21D;51367;45.204;38.576;2022-12-05T15:30:27;-0.35;72.89
64874;HTU21D;51367;45.204;38.576;2022-12-05T15:32:54;-0.39;72.92
64874;HTU21D;51367;45.204;38.576;2022-12-05T15:35:22;-0.43;73.19
64874;HTU21D;51367;45.204;38.576;2022-12-05T15:37:56;-0.47;73.13
64874;HTU21D;51367;45.204;38.576;2022-12-05T15:40:24;-0.53;73.21
64874;HTU21D;51367;45.204;38.576;2022-12-05T15:42:52;-0.56;73.39
64874;HTU21D;51367;45.204;38.576;2022-12-05T15:45:22;-0.60;73.51
64874;HTU21D;51367;45.204;38.576;2022-12-05T15:47:56;-0.65;73.64
64874;HTU21D;51367;45.204;38.576;2022-12-05T15:52:56;-0.68;73.90
64874;HTU21D;51367;45.204;38.576;2022-12-05T15:55:32;-0.70;73.97
64874;HTU21D;51367;45.204;38.576;2022-12-05T16:00:35;-0.75;74.13
64874;HTU21D;51367;45.204;38.576;2022-12-05T16:06:00;-0.82;74.29
64874;HTU21D;51367;45.204;38.576;2022-12-05T16:08:26;-0.86;74.38
64874;HTU21D;51367;45.204;38.576;2022-12-05T16:11:12;-0.89;74.47
64874;HTU21D;51367;45.204;38.576;2022-12-05T16:13:43;-0.93;74.45
64874;HTU21D;51367;45.204;38.576;2022-12-05T16:16:15;-0.97;74.40
64874;HTU21D;51367;45.204;38.576;2022-12-05T16:18:54;-0.99;74.64
64874;HTU21D;51367;45.204;38.576;2022-12-05T16:21:42;-1.01;74.83
64874;HTU21D;51367;45.204;38.576;2022-12-05T16:24:20;-1.04;75.01
64874;HTU21D;51367;45.204;38.576;2022-12-05T16:27:03;-1.04;75.31
64874;HTU21D;51367;45.204;38.576;2022-12-05T16:29:33;-1.06;75.25
64874;HTU21D;51367;45.204;38.576;2022-12-05T16:32:02;-1.09;75.25
64874;HTU21D;51367;45.204;38.576;2022-12-05T16:34:31;-1.08;75.67
64874;HTU21D;51367;45.204;38.576;2022-12-05T16:36:58;-1.08;75.66
64874;HTU21D;51367;45.204;38.576;2022-12-05T16:39:25;-1.11;75.54
64874;HTU21D;51367;45.204;38.576;2022-12-05T16:41:53;-1.13;75.53
64874;HTU21D;51367;45.204;38.576;2022-12-05T16:46:53;-1.17;75.75
64874;HTU21D;51367;45.204;38.576;2022-12-05T16:49:30;-1.19;75.89
64874;HTU21D;51367;45.204;38.576;2022-12-05T16:52:20;-1.20;75.79
64874;HTU21D;51367;45.204;38.576;2022-12-05T16:54:46;-1.26;75.82
64874;HTU21D;51367;45.204;38.576;2022-12-05T16:57:15;-1.28;75.92
64874;HTU21D;51367;45.204;38.576;2022-12-05T16:59:42;-1.31;75.95
64874;HTU21D;51367;45.204;38.576;2022-12-05T17:02:12;-1.33;75.91
64874;HTU21D;51367;45.204;38.576;2022-12-05T17:04:39;-1.38;75.99
64874;HTU21D;51367;45.204;38.576;2022-12-05T17:07:06;-1.41;76.04
64874;HTU21D;51367;45.204;38.576;2022-12-05T17:09:32;-1.46;76.12
64874;HTU21D;51367;45.204;38.576;2022-12-05T17:12:19;-1.49;76.19
64874;HTU21D;51367;45.204;38.576;2022-12-05T17:14:46;-1.54;76.21
64874;HTU21D;51367;45.204;38.576;2022-12-05T17:17:13;-1.57;76.21
64874;HTU21D;51367;45.204;38.576;2022-12-05T17:19:41;-1.62;76.29
64874;HTU21D;51367;45.204;38.576;2022-12-05T17:22:07;-1.64;76.35
64874;HTU21D;51367;45.204;38.576;2022-12-05T17:24:33;-1.68;76.56
64874;HTU21D;51367;45.204;38.576;2022-12-05T17:26:59;-1.69;76.57
64874;HTU21D;51367;45.204;38.576;2022-12-05T17:29:25;-1.72;76.61
64874;HTU21D;51367;45.204;38.576;2022-12-05T17:31:52;-1.74;76.64
64874;HTU21D;51367;45.204;38.576;2022-12-05T17:34:19;-1.75;76.61
64874;HTU21D;51367;45.204;38.576;2022-12-05T17:36:45;-1.78;76.77
64874;HTU21D;51367;45.204;38.576;2022-12-05T17:39:12;-1.80;76.71
64874;HTU21D;51367;45.204;38.576;2022-12-05T17:41:38;-1.83;76.73
64874;HTU21D;51367;45.204;38.576;2022-12-05T17:44:05;-1.84;76.89
64874;HTU21D;51367;45.204;38.576;2022-12-05T17:46:31;-1.83;76.93
64874;HTU21D;51367;45.204;38.576;2022-12-05T17:48:57;-1.85;76.94
64874;HTU21D;51367;45.204;38.576;2022-12-05T17:51:23;-1.87;76.95
64874;HTU21D;51367;45.204;38.576;2022-12-05T17:53:50;-1.87;77.00
64874;HTU21D;51367;45.204;38.576;2022-12-05T17:56:17;-1.88;77.06
64874;HTU21D;51367;45.204;38.576;2022-12-05T17:58:44;-1.88;77.08
64874;HTU21D;51367;45.204;38.576;2022-12-05T18:01:14;-1.89;77.05
64874;HTU21D;51367;45.204;38.576;2022-12-05T18:03:40;-1.87;77.03
64874;HTU21D;51367;45.204;38.576;2022-12-05T18:06:07;-1.88;77.09
64874;HTU21D;51367;45.204;38.576;2022-12-05T18:08:34;-1.86;77.17
64874;HTU21D;51367;45.204;38.576;2022-12-05T18:11:05;-1.83;77.17
64874;HTU21D;51367;45.204;38.576;2022-12-05T18:13:31;-1.83;77.23
64874;HTU21D;51367;45.204;38.576;2022-12-05T18:15:57;-1.79;77.37
64874;HTU21D;51367;45.204;38.576;2022-12-05T18:18:24;-1.76;77.37
64874;HTU21D;51367;45.204;38.576;2022-12-05T18:20:53;-1.75;77.35
64874;HTU21D;51367;45.204;38.576;2022-12-05T18:23:27;-1.73;77.39
64874;HTU21D;51367;45.204;38.576;2022-12-05T18:25:57;-1.72;77.44
64874;HTU21D;51367;45.204;38.576;2022-12-05T18:28:24;-1.69;77.63
64874;HTU21D;51367;45.204;38.576;2022-12-05T18:31:02;-1.67;77.66
64874;HTU21D;51367;45.204;38.576;2022-12-05T18:33:29;-1.63;77.78
64874;HTU21D;51367;45.204;38.576;2022-12-05T18:35:55;-1.62;77.72